sensor_id;sensor_type;location;lat;lon;timestamp;pressure;altitude;pressure_sealevel;temperature;humidity
25084;BME280;13075;55.682;37.564;2022-12-19T00:01:55;100727.09;;;-5.68;100.00
25084;BME280;13075;55.682;37.564;2022-12-19T00:04:20;100724.78;;;-5.55;100.00
25084;BME280;13075;55.682;37.564;2022-12-19T00:06:46;100721.41;;;-5.57;100.00
25084;BME280;13075;55.682;37.564;2022-12-19T00:09:12;100713.41;;;-5.54;100.00
25084;BME280;13075;55.682;37.564;2022-12-19T00:11:38;100717.31;;;-5.63;100.00
25084;BME280;13075;55.682;37.564;2022-12-19T00:14:04;100708.78;;;-5.48;100.00
25084;BME280;13075;55.682;37.564;2022-12-19T00:16:30;100724.91;;;-5.58;100.00
25084;BME280;13075;55.682;37.564;2022-12-19T00:18:58;100714.47;;;-5.58;100.00
25084;BME280;13075;55.682;37.564;2022-12-19T00:21:26;100717.22;;;-5.61;100.00
25084;BME280;13075;55.682;37.564;2022-12-19T00:23:52;100712.16;;;-5.46;100.00
25084;BME280;13075;55.682;37.564;2022-12-19T00:26:20;100720.06;;;-5.85;100.00
25084;BME280;13075;55.682;37.564;2022-12-19T00:28:49;100721.72;;;-5.65;100.00
25084;BME280;13075;55.682;37.564;2022-12-19T00:31:16;100720.59;;;-5.41;100.00
25084;BME280;13075;55.682;37.564;2022-12-19T00:33:42;100725.97;;;-5.44;100.00
25084;BME280;13075;55.682;37.564;2022-12-19T00:36:34;100725.59;;;-5.18;100.00
25084;BME280;13075;55.682;37.564;2022-12-19T00:39:01;100737.78;;;-4.99;100.00
25084;BME280;13075;55.682;37.564;2022-12-19T00:41:29;100737.69;;;-4.98;100.00
25084;BME280;13075;55.682;37.564;2022-12-19T00:43:57;100742.88;;;-4.79;100.00
25084;BME280;13075;55.682;37.564;2022-12-19T00:46:24;100740.50;;;-4.84;100.00
25084;BME280;13075;55.682;37.564;2022-12-19T00:48:50;100738.13;;;-4.88;100.00
25084;BME280;13075;55.682;37.564;2022-12-19T00:51:18;100734.91;;;-4.76;100.00
25084;BME280;13075;55.682;37.564;2022-12-19T00:53:45;100721.69;;;-4.90;100.00
25084;BME280;13075;55.682;37.564;2022-12-19T00:56:13;100729.16;;;-4.66;100.00
25084;BME280;13075;55.682;37.564;2022-12-19T00:58:39;100737.78;;;-4.47;100.00
25084;BME280;13075;55.682;37.564;2022-12-19T01:01:09;100729.03;;;-4.63;100.00
25084;BME280;13075;55.682;37.564;2022-12-19T01:03:35;100726.09;;;-4.57;100.00
25084;BME280;13075;55.682;37.564;2022-12-19T01:06:01;100726.06;;;-4.74;100.00
25084;BME280;13075;55.682;37.564;2022-12-19T01:08:26;100732.09;;;-4.55;100.00
25084;BME280;13075;55.682;37.564;2022-12-19T01:10:52;100733.84;;;-4.38;100.00
25084;BME280;13075;55.682;37.564;2022-12-19T01:13:20;100733.38;;;-4.46;100.00
25084;BME280;13075;55.682;37.564;2022-12-19T01:15:46;100731.84;;;-4.33;100.00
25084;BME280;13075;55.682;37.564;2022-12-19T01:18:12;100726.50;;;-4.47;100.00
25084;BME280;13075;55.682;37.564;2022-12-19T01:20:42;100717.66;;;-4.45;100.00
25084;BME280;13075;55.682;37.564;2022-12-19T01:23:09;100731.84;;;-4.33;100.00
25084;BME280;13075;55.682;37.564;2022-12-19T01:25:36;100734.88;;;-4.23;100.00
25084;BME280;13075;55.682;37.564;2022-12-19T01:28:03;100727.97;;;-4.42;100.00
25084;BME280;13075;55.682;37.564;2022-12-19T01:30:31;100735.63;;;-4.38;100.00
25084;BME280;13075;55.682;37.564;2022-12-19T01:32:57;100732.56;;;-4.47;100.00
25084;BME280;13075;55.682;37.564;2022-12-19T01:35:26;100729.19;;;-4.31;100.00
25084;BME280;13075;55.682;37.564;2022-12-19T01:37:52;100726.25;;;-4.43;100.00
25084;BME280;13075;55.682;37.564;2022-12-19T01:40:19;100720.81;;;-4.38;100.00
25084;BME280;13075;55.682;37.564;2022-12-19T01:42:47;100722.13;;;-4.29;100.00
25084;BME280;13075;55.682;37.564;2022-12-19T01:50:16;100718.63;;;-3.96;100.00
25084;BME280;13075;55.682;37.564;2022-12-19T01:52:42;100720.47;;;-4.15;100.00
25084;BME280;13075;55.682;37.564;2022-12-19T01:55:09;100713.94;;;-4.06;100.00
25084;BME280;13075;55.682;37.564;2022-12-19T01:57:37;100723.91;;;-3.97;100.00
25084;BME280;13075;55.682;37.564;2022-12-19T02:00:04;100729.63;;;-4.06;100.00
25084;BME280;13075;55.682;37.564;2022-12-19T02:02:45;100727.88;;;-4.06;100.00
25084;BME280;13075;55.682;37.564;2022-12-19T02:05:14;100729.47;;;-4.03;100.00
25084;BME280;13075;55.682;37.564;2022-12-19T02:07:42;100721.06;;;-3.93;100.00
25084;BME280;13075;55.682;37.564;2022-12-19T02:10:08;100718.94;;;-4.02;100.00
25084;BME280;13075;55.682;37.564;2022-12-19T02:12:38;100712.38;;;-3.93;100.00
25084;BME280;13075;55.682;37.564;2022-12-19T02:15:07;100708.63;;;-4.05;100.00
25084;BME280;13075;55.682;37.564;2022-12-19T02:31:30;100688.38;;;-3.84;100.00
25084;BME280;13075;55.682;37.564;2022-12-19T02:37:02;100683.25;;;-3.70;100.00
25084;BME280;13075;55.682;37.564;2022-12-19T02:39:38;100683.84;;;-3.65;100.00
25084;BME280;13075;55.682;37.564;2022-12-19T02:42:09;100665.22;;;-3.74;100.00
25084;BME280;13075;55.682;37.564;2022-12-19T02:44:49;100663.53;;;-3.29;100.00
25084;BME280;13075;55.682;37.564;2022-12-19T02:47:16;100676.28;;;-3.69;100.00
25084;BME280;13075;55.682;37.564;2022-12-19T02:49:43;100671.13;;;-3.40;100.00
25084;BME280;13075;55.682;37.564;2022-12-19T02:55:11;100660.66;;;-3.24;100.00
25084;BME280;13075;55.682;37.564;2022-12-19T03:00:07;100653.72;;;-3.25;100.00
25084;BME280;13075;55.682;37.564;2022-12-19T03:08:00;100652.47;;;-3.18;100.00
25084;BME280;13075;55.682;37.564;2022-12-19T03:10:48;100652.91;;;-3.26;100.00
25084;BME280;13075;55.682;37.564;2022-12-19T03:15:48;100652.31;;;-3.31;100.00
25084;BME280;13075;55.682;37.564;2022-12-19T03:18:14;100649.94;;;-3.20;100.00
25084;BME280;13075;55.682;37.564;2022-12-19T03:20:51;100646.22;;;-3.16;100.00
25084;BME280;13075;55.682;37.564;2022-12-19T03:23:19;100643.34;;;-3.11;100.00
25084;BME280;13075;55.682;37.564;2022-12-19T03:25:49;100650.03;;;-3.21;100.00
25084;BME280;13075;55.682;37.564;2022-12-19T03:28:26;100646.50;;;-3.20;100.00
25084;BME280;13075;55.682;37.564;2022-12-19T03:30:57;100636.41;;;-3.12;100.00
25084;BME280;13075;55.682;37.564;2022-12-19T03:33:24;100645.53;;;-3.03;100.00
25084;BME280;13075;55.682;37.564;2022-12-19T03:35:53;100643.59;;;-3.16;100.00
25084;BME280;13075;55.682;37.564;2022-12-19T03:38:20;100632.44;;;-3.03;100.00
25084;BME280;13075;55.682;37.564;2022-12-19T03:40:47;100628.22;;;-3.06;100.00
25084;BME280;13075;55.682;37.564;2022-12-19T03:43:15;100638.78;;;-3.07;100.00
25084;BME280;13075;55.682;37.564;2022-12-19T03:48:41;100628.03;;;-2.73;100.00
25084;BME280;13075;55.682;37.564;2022-12-19T03:54:18;100609.91;;;-3.06;100.00
25084;BME280;13075;55.682;37.564;2022-12-19T03:59:42;100604.28;;;-2.84;100.00
25084;BME280;13075;55.682;37.564;2022-12-19T04:02:10;100590.66;;;-3.05;100.00
25084;BME280;13075;55.682;37.564;2022-12-19T04:04:41;100600.81;;;-2.71;100.00
25084;BME280;13075;55.682;37.564;2022-12-19T04:07:09;100606.91;;;-2.70;100.00
25084;BME280;13075;55.682;37.564;2022-12-19T04:09:37;100615.78;;;-2.73;100.00
25084;BME280;13075;55.682;37.564;2022-12-19T04:12:08;100605.03;;;-2.68;100.00
25084;BME280;13075;55.682;37.564;2022-12-19T04:14:37;100612.19;;;-2.86;100.00
25084;BME280;13075;55.682;37.564;2022-12-19T04:17:33;100609.22;;;-3.09;100.00
25084;BME280;13075;55.682;37.564;2022-12-19T04:20:23;100599.47;;;-3.22;100.00
25084;BME280;13075;55.682;37.564;2022-12-19T04:23:01;100593.75;;;-3.28;100.00
25084;BME280;13075;55.682;37.564;2022-12-19T04:25:50;100587.69;;;-3.44;100.00
25084;BME280;13075;55.682;37.564;2022-12-19T04:28:25;100583.75;;;-3.51;100.00
25084;BME280;13075;55.682;37.564;2022-12-19T04:30:55;100593.00;;;-3.46;100.00
25084;BME280;13075;55.682;37.564;2022-12-19T04:33:21;100589.53;;;-3.31;100.00
25084;BME280;13075;55.682;37.564;2022-12-19T04:35:46;100589.44;;;-3.45;100.00
25084;BME280;13075;55.682;37.564;2022-12-19T04:38:12;100596.44;;;-3.30;100.00
25084;BME280;13075;55.682;37.564;2022-12-19T04:40:38;100603.97;;;-3.39;100.00
25084;BME280;13075;55.682;37.564;2022-12-19T04:43:03;100599.16;;;-3.47;100.00
25084;BME280;13075;55.682;37.564;2022-12-19T04:45:29;100599.06;;;-3.30;100.00
25084;BME280;13075;55.682;37.564;2022-12-19T04:47:55;100593.66;;;-3.42;100.00
25084;BME280;13075;55.682;37.564;2022-12-19T04:50:20;100611.56;;;-3.50;100.00
25084;BME280;13075;55.682;37.564;2022-12-19T04:52:46;100606.16;;;-3.32;100.00
25084;BME280;13075;55.682;37.564;2022-12-19T04:55:12;100611.69;;;-3.22;100.00
25084;BME280;13075;55.682;37.564;2022-12-19T04:57:37;100607.13;;;-3.03;100.00
25084;BME280;13075;55.682;37.564;2022-12-19T05:00:03;100598.31;;;-3.02;100.00
25084;BME280;13075;55.682;37.564;2022-12-19T05:02:31;100602.31;;;-3.10;100.00
25084;BME280;13075;55.682;37.564;2022-12-19T05:04:56;100602.59;;;-3.15;100.00
25084;BME280;13075;55.682;37.564;2022-12-19T05:07:22;100606.78;;;-2.97;100.00
25084;BME280;13075;55.682;37.564;2022-12-19T05:09:48;100609.38;;;-2.97;100.00
25084;BME280;13075;55.682;37.564;2022-12-19T05:12:13;100603.50;;;-3.16;100.00
25084;BME280;13075;55.682;37.564;2022-12-19T05:14:39;100608.31;;;-3.08;100.00
25084;BME280;13075;55.682;37.564;2022-12-19T05:17:05;100601.94;;;-3.04;100.00
25084;BME280;13075;55.682;37.564;2022-12-19T05:19:30;100605.44;;;-3.20;100.00
25084;BME280;13075;55.682;37.564;2022-12-19T05:21:56;100600.13;;;-3.18;100.00
25084;BME280;13075;55.682;37.564;2022-12-19T05:24:21;100604.31;;;-3.00;100.00
25084;BME280;13075;55.682;37.564;2022-12-19T05:26:48;100612.78;;;-3.10;100.00
25084;BME280;13075;55.682;37.564;2022-12-19T05:29:14;100608.25;;;-2.93;100.00
25084;BME280;13075;55.682;37.564;2022-12-19T05:31:39;100597.13;;;-2.96;100.00
25084;BME280;13075;55.682;37.564;2022-12-19T05:34:05;100586.88;;;-2.85;100.00
25084;BME280;13075;55.682;37.564;2022-12-19T05:36:31;100595.69;;;-3.32;100.00
25084;BME280;13075;55.682;37.564;2022-12-19T05:38:56;100593.75;;;-2.98;100.00
25084;BME280;13075;55.682;37.564;2022-12-19T05:41:22;100576.94;;;-2.94;100.00
25084;BME280;13075;55.682;37.564;2022-12-19T05:43:52;100600.81;;;-2.85;100.00
25084;BME280;13075;55.682;37.564;2022-12-19T05:46:19;100594.19;;;-2.76;100.00
25084;BME280;13075;55.682;37.564;2022-12-19T05:48:45;100595.22;;;-3.08;100.00
25084;BME280;13075;55.682;37.564;2022-12-19T05:51:11;100596.91;;;-3.07;100.00
25084;BME280;13075;55.682;37.564;2022-12-19T05:53:40;100587.44;;;-2.80;100.00
25084;BME280;13075;55.682;37.564;2022-12-19T05:56:07;100587.19;;;-3.05;100.00
25084;BME280;13075;55.682;37.564;2022-12-19T05:58:33;100594.59;;;-2.98;100.00
25084;BME280;13075;55.682;37.564;2022-12-19T06:01:25;100585.75;;;-2.81;100.00
25084;BME280;13075;55.682;37.564;2022-12-19T06:03:49;100575.47;;;-2.84;100.00
25084;BME280;13075;55.682;37.564;2022-12-19T06:06:17;100579.00;;;-2.85;100.00
25084;BME280;13075;55.682;37.564;2022-12-19T06:08:43;100568.72;;;-2.88;100.00
25084;BME280;13075;55.682;37.564;2022-12-19T06:11:10;100575.66;;;-2.87;100.00
25084;BME280;13075;55.682;37.564;2022-12-19T06:13:36;100579.63;;;-2.66;100.00
25084;BME280;13075;55.682;37.564;2022-12-19T06:16:05;100595.72;;;-2.58;100.00
25084;BME280;13075;55.682;37.564;2022-12-19T06:18:31;100604.16;;;-2.53;100.00
25084;BME280;13075;55.682;37.564;2022-12-19T06:21:02;100598.91;;;-2.39;100.00
25084;BME280;13075;55.682;37.564;2022-12-19T06:23:30;100598.53;;;-2.61;100.00
25084;BME280;13075;55.682;37.564;2022-12-19T06:25:58;100596.97;;;-2.35;100.00
25084;BME280;13075;55.682;37.564;2022-12-19T06:28:25;100598.34;;;-2.58;100.00
25084;BME280;13075;55.682;37.564;2022-12-19T06:30:54;100602.63;;;-2.71;100.00
25084;BME280;13075;55.682;37.564;2022-12-19T06:33:20;100609.75;;;-2.59;100.00
25084;BME280;13075;55.682;37.564;2022-12-19T06:35:46;100610.66;;;-2.60;100.00
25084;BME280;13075;55.682;37.564;2022-12-19T06:38:11;100613.78;;;-2.54;100.00
25084;BME280;13075;55.682;37.564;2022-12-19T06:40:43;100599.00;;;-2.55;100.00
25084;BME280;13075;55.682;37.564;2022-12-19T06:43:27;100594.56;;;-2.68;100.00
25084;BME280;13075;55.682;37.564;2022-12-19T06:45:53;100601.38;;;-2.36;100.00
25084;BME280;13075;55.682;37.564;2022-12-19T06:48:18;100605.41;;;-2.30;100.00
25084;BME280;13075;55.682;37.564;2022-12-19T06:50:44;100604.06;;;-2.37;100.00
25084;BME280;13075;55.682;37.564;2022-12-19T06:53:09;100596.00;;;-2.34;100.00
25084;BME280;13075;55.682;37.564;2022-12-19T06:55:36;100596.47;;;-2.56;100.00
25084;BME280;13075;55.682;37.564;2022-12-19T06:58:03;100587.13;;;-2.46;100.00
25084;BME280;13075;55.682;37.564;2022-12-19T07:00:29;100589.38;;;-2.26;100.00
25084;BME280;13075;55.682;37.564;2022-12-19T07:02:57;100586.75;;;-1.98;100.00
25084;BME280;13075;55.682;37.564;2022-12-19T07:05:23;100586.38;;;-2.06;100.00
25084;BME280;13075;55.682;37.564;2022-12-19T07:07:49;100575.69;;;-2.17;100.00
25084;BME280;13075;55.682;37.564;2022-12-19T07:10:14;100575.69;;;-2.17;100.00
25084;BME280;13075;55.682;37.564;2022-12-19T07:12:40;100572.25;;;-2.03;100.00
25084;BME280;13075;55.682;37.564;2022-12-19T07:15:06;100568.09;;;-1.93;100.00
25084;BME280;13075;55.682;37.564;2022-12-19T07:17:32;100580.25;;;-1.78;100.00
25084;BME280;13075;55.682;37.564;2022-12-19T07:19:58;100576.41;;;-1.72;100.00
25084;BME280;13075;55.682;37.564;2022-12-19T07:22:25;100576.81;;;-1.78;100.00
25084;BME280;13075;55.682;37.564;2022-12-19T07:24:54;100586.88;;;-1.72;100.00
25084;BME280;13075;55.682;37.564;2022-12-19T07:27:21;100585.19;;;-1.59;100.00
25084;BME280;13075;55.682;37.564;2022-12-19T07:29:47;100579.44;;;-1.52;100.00
25084;BME280;13075;55.682;37.564;2022-12-19T07:32:13;100593.03;;;-1.45;100.00
25084;BME280;13075;55.682;37.564;2022-12-19T07:34:38;100595.31;;;-1.67;100.00
25084;BME280;13075;55.682;37.564;2022-12-19T07:37:04;100591.94;;;-1.69;100.00
25084;BME280;13075;55.682;37.564;2022-12-19T07:39:31;100612.94;;;-1.69;100.00
25084;BME280;13075;55.682;37.564;2022-12-19T07:41:56;100623.41;;;-1.69;100.00
25084;BME280;13075;55.682;37.564;2022-12-19T07:44:31;100621.53;;;-1.67;100.00
25084;BME280;13075;55.682;37.564;2022-12-19T07:46:57;100603.47;;;-1.72;100.00
25084;BME280;13075;55.682;37.564;2022-12-19T07:49:22;100605.91;;;-1.83;100.00
25084;BME280;13075;55.682;37.564;2022-12-19T07:51:49;100618.84;;;-1.80;100.00
25084;BME280;13075;55.682;37.564;2022-12-19T07:54:14;100606.56;;;-1.65;100.00
25084;BME280;13075;55.682;37.564;2022-12-19T07:56:40;100602.94;;;-1.77;100.00
25084;BME280;13075;55.682;37.564;2022-12-19T07:59:06;100601.75;;;-2.00;100.00
25084;BME280;13075;55.682;37.564;2022-12-19T08:01:31;100596.94;;;-1.79;100.00
25084;BME280;13075;55.682;37.564;2022-12-19T08:03:57;100594.22;;;-1.77;100.00
25084;BME280;13075;55.682;37.564;2022-12-19T08:06:22;100595.03;;;-1.63;100.00
25084;BME280;13075;55.682;37.564;2022-12-19T08:08:49;100596.97;;;-1.52;100.00
25084;BME280;13075;55.682;37.564;2022-12-19T08:11:17;100587.66;;;-1.84;100.00
25084;BME280;13075;55.682;37.564;2022-12-19T08:13:46;100583.22;;;-1.56;100.00
25084;BME280;13075;55.682;37.564;2022-12-19T08:16:12;100591.88;;;-1.41;100.00
25084;BME280;13075;55.682;37.564;2022-12-19T08:18:38;100593.06;;;-1.33;100.00
25084;BME280;13075;55.682;37.564;2022-12-19T08:21:06;100593.03;;;-1.45;100.00
25084;BME280;13075;55.682;37.564;2022-12-19T08:23:32;100597.75;;;-1.11;100.00
25084;BME280;13075;55.682;37.564;2022-12-19T08:26:03;100585.91;;;-1.16;100.00
25084;BME280;13075;55.682;37.564;2022-12-19T08:28:32;100585.34;;;-1.21;100.00
25084;BME280;13075;55.682;37.564;2022-12-19T08:31:04;100579.00;;;-1.32;100.00
25084;BME280;13075;55.682;37.564;2022-12-19T08:33:30;100583.28;;;-1.16;100.00
25084;BME280;13075;55.682;37.564;2022-12-19T08:35:55;100584.09;;;-1.16;100.00
25084;BME280;13075;55.682;37.564;2022-12-19T08:38:21;100588.47;;;-0.90;100.00
25084;BME280;13075;55.682;37.564;2022-12-19T08:40:53;100582.56;;;-1.06;100.00
25084;BME280;13075;55.682;37.564;2022-12-19T08:43:21;100589.16;;;-1.00;100.00
25084;BME280;13075;55.682;37.564;2022-12-19T08:45:48;100580.19;;;-0.84;100.00
25084;BME280;13075;55.682;37.564;2022-12-19T08:48:14;100577.63;;;-0.98;100.00
25084;BME280;13075;55.682;37.564;2022-12-19T08:50:51;100580.69;;;-0.91;100.00
25084;BME280;13075;55.682;37.564;2022-12-19T08:53:17;100583.19;;;-1.02;100.00
25084;BME280;13075;55.682;37.564;2022-12-19T08:55:43;100587.19;;;-0.97;100.00
25084;BME280;13075;55.682;37.564;2022-12-19T08:58:08;100586.81;;;-0.91;100.00
25084;BME280;13075;55.682;37.564;2022-12-19T09:00:34;100588.00;;;-1.09;100.00
25084;BME280;13075;55.682;37.564;2022-12-19T09:02:59;100589.09;;;-0.99;100.00
25084;BME280;13075;55.682;37.564;2022-12-19T09:05:25;100571.25;;;-0.94;100.00
25084;BME280;13075;55.682;37.564;2022-12-19T09:07:50;100580.25;;;-0.98;100.00
25084;BME280;13075;55.682;37.564;2022-12-19T09:10:16;100570.41;;;-0.94;100.00
25084;BME280;13075;55.682;37.564;2022-12-19T09:12:41;100572.50;;;-0.87;100.00
25084;BME280;13075;55.682;37.564;2022-12-19T09:15:07;100576.50;;;-0.81;100.00
25084;BME280;13075;55.682;37.564;2022-12-19T09:17:33;100572.00;;;-0.67;100.00
25084;BME280;13075;55.682;37.564;2022-12-19T09:19:59;100572.19;;;-0.70;100.00
25084;BME280;13075;55.682;37.564;2022-12-19T09:22:24;100571.72;;;-0.62;100.00
25084;BME280;13075;55.682;37.564;2022-12-19T09:24:50;100570.13;;;-0.65;100.00
25084;BME280;13075;55.682;37.564;2022-12-19T09:27:15;100575.69;;;-0.56;100.00
25084;BME280;13075;55.682;37.564;2022-12-19T09:29:41;100565.69;;;-0.51;100.00
25084;BME280;13075;55.682;37.564;2022-12-19T09:32:08;100566.75;;;-0.79;100.00
25084;BME280;13075;55.682;37.564;2022-12-19T09:34:33;100564.44;;;-0.71;100.00
25084;BME280;13075;55.682;37.564;2022-12-19T09:37:01;100568.13;;;-0.48;100.00
25084;BME280;13075;55.682;37.564;2022-12-19T09:39:26;100574.41;;;-0.76;100.00
25084;BME280;13075;55.682;37.564;2022-12-19T09:47:17;100574.63;;;-0.54;100.00
25084;BME280;13075;55.682;37.564;2022-12-19T09:49:45;100580.19;;;-0.84;100.00
25084;BME280;13075;55.682;37.564;2022-12-19T09:52:18;100570.34;;;-0.55;100.00
25084;BME280;13075;55.682;37.564;2022-12-19T09:54:52;100561.41;;;-0.52;100.00
25084;BME280;13075;55.682;37.564;2022-12-19T10:00:16;100580.84;;;-0.55;100.00
25084;BME280;13075;55.682;37.564;2022-12-19T10:03:04;100583.28;;;-0.52;100.00
25084;BME280;13075;55.682;37.564;2022-12-19T10:05:42;100577.50;;;-0.44;100.00
25084;BME280;13075;55.682;37.564;2022-12-19T10:08:21;100574.88;;;-0.57;100.00
25084;BME280;13075;55.682;37.564;2022-12-19T10:32:40;100590.94;;;-0.62;100.00
25084;BME280;13075;55.682;37.564;2022-12-19T10:35:16;100594.06;;;-0.69;100.00
25084;BME280;13075;55.682;37.564;2022-12-19T10:40:42;100588.63;;;-0.28;100.00
25084;BME280;13075;55.682;37.564;2022-12-19T10:43:35;100585.78;;;-0.63;100.00
25084;BME280;13075;55.682;37.564;2022-12-19T10:46:14;100580.66;;;-0.65;100.00
25084;BME280;13075;55.682;37.564;2022-12-19T10:48:42;100588.53;;;-0.39;100.00
25084;BME280;13075;55.682;37.564;2022-12-19T10:51:12;100575.28;;;-0.38;100.00
25084;BME280;13075;55.682;37.564;2022-12-19T10:53:52;100582.84;;;-0.46;100.00
25084;BME280;13075;55.682;37.564;2022-12-19T10:56:23;100592.81;;;-0.51;100.00
25084;BME280;13075;55.682;37.564;2022-12-19T10:58:51;100582.84;;;-0.58;100.00
25084;BME280;13075;55.682;37.564;2022-12-19T11:03:51;100591.38;;;-0.55;100.00
25084;BME280;13075;55.682;37.564;2022-12-19T11:06:46;100588.53;;;-0.52;100.00
25084;BME280;13075;55.682;37.564;2022-12-19T11:09:37;100598.72;;;-0.60;100.00
25084;BME280;13075;55.682;37.564;2022-12-19T11:14:33;100595.56;;;-0.40;100.00
25084;BME280;13075;55.682;37.564;2022-12-19T11:17:00;100592.63;;;-0.48;100.00
25084;BME280;13075;55.682;37.564;2022-12-19T11:22:00;100599.56;;;-0.34;100.00
25084;BME280;13075;55.682;37.564;2022-12-19T11:24:38;100609.25;;;-0.35;100.00
25084;BME280;13075;55.682;37.564;2022-12-19T11:29:56;100605.56;;;-0.20;100.00
25084;BME280;13075;55.682;37.564;2022-12-19T11:32:38;100604.41;;;-0.41;100.00
25084;BME280;13075;55.682;37.564;2022-12-19T11:37:53;100616.41;;;-0.24;100.00
25084;BME280;13075;55.682;37.564;2022-12-19T11:43:33;100620.09;;;-0.27;100.00
25084;BME280;13075;55.682;37.564;2022-12-19T11:46:06;100630.69;;;-0.41;100.00
25084;BME280;13075;55.682;37.564;2022-12-19T11:48:36;100632.59;;;-0.30;100.00
25084;BME280;13075;55.682;37.564;2022-12-19T11:51:27;100627.66;;;-0.35;100.00
25084;BME280;13075;55.682;37.564;2022-12-19T11:54:19;100628.81;;;-0.39;100.00
25084;BME280;13075;55.682;37.564;2022-12-19T11:56:47;100628.06;;;-0.41;100.00
25084;BME280;13075;55.682;37.564;2022-12-19T11:59:18;100631.84;;;-0.20;100.00
25084;BME280;13075;55.682;37.564;2022-12-19T12:01:51;100637.44;;;-0.37;100.00
25084;BME280;13075;55.682;37.564;2022-12-19T12:07:05;100641.84;;;-0.37;100.00
25084;BME280;13075;55.682;37.564;2022-12-19T12:12:08;100635.00;;;-0.52;100.00
25084;BME280;13075;55.682;37.564;2022-12-19T12:15:00;100639.84;;;-0.34;100.00
25084;BME280;13075;55.682;37.564;2022-12-19T12:36:26;100647.63;;;-0.20;100.00
25084;BME280;13075;55.682;37.564;2022-12-19T12:39:10;100649.00;;;-0.14;100.00
25084;BME280;13075;55.682;37.564;2022-12-19T12:42:02;100669.47;;;0.31;100.00
25084;BME280;13075;55.682;37.564;2022-12-19T12:44:33;100656.25;;;-0.05;100.00
25084;BME280;13075;55.682;37.564;2022-12-19T12:47:24;100666.47;;;0.12;100.00
25084;BME280;13075;55.682;37.564;2022-12-19T12:54:53;100665.00;;;-0.05;100.00
25084;BME280;13075;55.682;37.564;2022-12-19T12:57:33;100663.09;;;-0.15;100.00
25084;BME280;13075;55.682;37.564;2022-12-19T13:00:21;100678.47;;;-0.09;100.00
25084;BME280;13075;55.682;37.564;2022-12-19T13:07:57;100690.16;;;-0.01;100.00
25084;BME280;13075;55.682;37.564;2022-12-19T13:10:24;100695.19;;;0.28;100.00
25084;BME280;13075;55.682;37.564;2022-12-19T13:13:07;100681.41;;;0.24;100.00
25084;BME280;13075;55.682;37.564;2022-12-19T13:15:38;100690.13;;;0.25;100.00
25084;BME280;13075;55.682;37.564;2022-12-19T13:20:44;100690.66;;;0.17;100.00
25084;BME280;13075;55.682;37.564;2022-12-19T13:25:53;100699.72;;;0.26;100.00
25084;BME280;13075;55.682;37.564;2022-12-19T13:36:49;100705.38;;;0.32;100.00
25084;BME280;13075;55.682;37.564;2022-12-19T13:41:48;100701.91;;;0.44;100.00
25084;BME280;13075;55.682;37.564;2022-12-19T13:44:38;100702.84;;;0.56;100.00
25084;BME280;13075;55.682;37.564;2022-12-19T13:47:05;100694.63;;;0.48;100.00
25084;BME280;13075;55.682;37.564;2022-12-19T13:49:32;100707.91;;;0.59;100.00
25084;BME280;13075;55.682;37.564;2022-12-19T13:51:58;100705.22;;;0.72;100.00
25084;BME280;13075;55.682;37.564;2022-12-19T13:54:25;100710.75;;;0.43;100.00
25084;BME280;13075;55.682;37.564;2022-12-19T13:56:54;100712.22;;;0.47;100.00
25084;BME280;13075;55.682;37.564;2022-12-19T13:59:21;100726.41;;;0.57;100.00
25084;BME280;13075;55.682;37.564;2022-12-19T14:01:49;100714.19;;;0.69;100.00
25084;BME280;13075;55.682;37.564;2022-12-19T14:04:27;100712.41;;;0.57;100.00
25084;BME280;13075;55.682;37.564;2022-12-19T14:07:03;100727.03;;;0.74;100.00
25084;BME280;13075;55.682;37.564;2022-12-19T14:09:41;100724.50;;;0.59;100.00
25084;BME280;13075;55.682;37.564;2022-12-19T14:12:21;100723.44;;;0.75;100.00
25084;BME280;13075;55.682;37.564;2022-12-19T14:15:27;100721.66;;;0.62;100.00
25084;BME280;13075;55.682;37.564;2022-12-19T14:17:53;100735.72;;;0.38;100.00
25084;BME280;13075;55.682;37.564;2022-12-19T14:20:24;100726.53;;;0.56;100.00
25084;BME280;13075;55.682;37.564;2022-12-19T14:22:58;100733.91;;;0.63;100.00
25084;BME280;13075;55.682;37.564;2022-12-19T14:28:03;100740.63;;;0.68;100.00
25084;BME280;13075;55.682;37.564;2022-12-19T14:30:34;100731.34;;;0.62;100.00
25084;BME280;13075;55.682;37.564;2022-12-19T14:33:08;100733.59;;;0.55;100.00
25084;BME280;13075;55.682;37.564;2022-12-19T14:35:44;100743.69;;;0.61;100.00
25084;BME280;13075;55.682;37.564;2022-12-19T14:38:15;100746.94;;;0.65;100.00
25084;BME280;13075;55.682;37.564;2022-12-19T14:40:41;100741.44;;;0.81;100.00
25084;BME280;13075;55.682;37.564;2022-12-19T14:43:25;100741.66;;;0.65;100.00
25084;BME280;13075;55.682;37.564;2022-12-19T14:48:54;100742.94;;;0.72;100.00
25084;BME280;13075;55.682;37.564;2022-12-19T14:51:29;100750.31;;;0.80;100.00
25084;BME280;13075;55.682;37.564;2022-12-19T14:54:22;100733.03;;;0.63;100.00
25084;BME280;13075;55.682;37.564;2022-12-19T14:56:53;100731.22;;;0.76;100.00
25084;BME280;13075;55.682;37.564;2022-12-19T15:04:35;100736.38;;;0.78;100.00
25084;BME280;13075;55.682;37.564;2022-12-19T15:07:06;100755.16;;;0.73;100.00
25084;BME280;13075;55.682;37.564;2022-12-19T15:09:54;100758.38;;;0.89;100.00
25084;BME280;13075;55.682;37.564;2022-12-19T15:12:31;100754.41;;;0.84;100.00
25084;BME280;13075;55.682;37.564;2022-12-19T15:15:20;100758.91;;;0.94;100.00
25084;BME280;13075;55.682;37.564;2022-12-19T15:17:48;100758.88;;;1.07;100.00
25084;BME280;13075;55.682;37.564;2022-12-19T15:20:14;100760.28;;;0.87;100.00